createdAt,value
2019-03-21T00:01:34.949Z,101814.00
2019-03-21T00:04:05.770Z,101811.81
2019-03-21T00:06:33.375Z,101815.75
2019-03-21T00:09:01.039Z,101821.00
2019-03-21T00:11:59.800Z,101817.94
2019-03-21T00:14:42.999Z,101818.84
2019-03-21T00:17:10.759Z,101820.16
2019-03-21T00:19:38.366Z,101830.23
2019-03-21T00:22:05.962Z,101831.55
2019-03-21T00:24:33.568Z,101821.02
2019-03-21T00:27:01.178Z,101818.40
2019-03-21T00:29:28.786Z,101829.78
2019-03-21T00:31:56.383Z,101838.98
2019-03-21T00:34:23.972Z,101832.42
2019-03-21T00:36:51.570Z,101816.63
2019-03-21T00:39:19.220Z,101808.75
2019-03-21T00:41:46.780Z,101822.33
2019-03-21T00:44:18.450Z,101826.27
2019-03-21T00:46:43.918Z,101824.92
2019-03-21T00:49:11.513Z,101822.30
2019-03-21T00:51:39.118Z,101811.81
2019-03-21T00:54:06.728Z,101807.88
2019-03-21T00:56:34.324Z,101810.50
2019-03-21T00:59:01.924Z,101804.81
2019-03-21T01:01:29.521Z,101799.56
2019-03-21T01:03:57.128Z,101809.63
2019-03-21T01:06:24.732Z,101810.94
2019-03-21T01:08:52.360Z,101812.69
2019-03-21T01:11:19.994Z,101810.06
2019-03-21T01:13:47.622Z,101802.61
2019-03-21T01:16:15.267Z,101794.29
2019-03-21T01:18:42.878Z,101786.86
2019-03-21T01:21:10.496Z,101791.27
2019-03-21T01:23:38.096Z,101790.38
2019-03-21T01:26:05.705Z,101800.04
2019-03-21T01:28:33.307Z,101794.77
2019-03-21T01:31:01.019Z,101779.88
2019-03-21T01:33:28.607Z,101771.09
2019-03-21T01:35:56.196Z,101759.28
2019-03-21T01:38:23.809Z,101759.72
2019-03-21T01:40:51.578Z,101761.03
2019-03-21T01:43:19.298Z,101768.89
2019-03-21T01:45:46.916Z,101776.33
2019-03-21T01:48:14.519Z,101773.28
2019-03-21T01:50:42.115Z,101773.70
2019-03-21T01:53:09.749Z,101778.52
2019-03-21T01:55:37.346Z,101768.45
2019-03-21T01:58:04.962Z,101773.23
2019-03-21T02:00:34.528Z,101760.55
2019-03-21T02:03:02.150Z,101758.80
2019-03-21T02:05:29.732Z,101756.63
2019-03-21T02:07:57.356Z,101754.00
2019-03-21T02:10:24.983Z,101745.23
2019-03-21T02:12:52.547Z,101739.13
2019-03-21T02:15:20.182Z,101754.44
2019-03-21T02:17:47.835Z,101754.47
2019-03-21T02:20:15.571Z,101750.95
2019-03-21T02:22:43.174Z,101750.95
2019-03-21T02:25:22.469Z,101761.92
2019-03-21T02:27:50.323Z,101757.95
2019-03-21T02:30:20.286Z,101741.33
2019-03-21T02:32:49.698Z,101736.05
2019-03-21T02:35:17.291Z,101732.53
2019-03-21T02:37:44.903Z,101730.81
2019-03-21T02:40:14.809Z,101724.25
2019-03-21T02:42:42.440Z,101717.23
2019-03-21T02:45:11.283Z,101720.30
2019-03-21T02:47:38.959Z,101711.10
2019-03-21T02:50:09.627Z,101712.01
2019-03-21T02:52:37.235Z,101705.87
2019-03-21T02:55:05.198Z,101708.48
2019-03-21T02:57:32.791Z,101704.10
2019-03-21T03:00:00.497Z,101698.00
2019-03-21T03:02:28.096Z,101695.38
2019-03-21T03:04:55.700Z,101696.23
2019-03-21T03:07:23.297Z,101701.95
2019-03-21T03:09:50.891Z,101695.36
2019-03-21T03:12:18.507Z,101691.84
2019-03-21T03:14:46.107Z,101695.80
2019-03-21T03:17:13.813Z,101690.09
2019-03-21T03:19:41.446Z,101687.47
2019-03-21T03:22:09.095Z,101687.05
2019-03-21T03:24:37.398Z,101685.27
2019-03-21T03:27:04.999Z,101680.02
2019-03-21T03:29:32.604Z,101681.33
2019-03-21T03:32:00.293Z,101673.45
2019-03-21T03:34:31.003Z,101673.89
2019-03-21T03:36:58.595Z,101666.42
2019-03-21T03:39:26.208Z,101662.48
2019-03-21T03:41:53.819Z,101655.48
2019-03-21T03:44:21.417Z,101649.77
2019-03-21T03:46:49.014Z,101644.52
2019-03-21T03:49:16.640Z,101640.58
2019-03-21T03:51:44.256Z,101631.83
2019-03-21T03:54:11.868Z,101633.58
2019-03-21T03:56:39.480Z,101632.25
2019-03-21T03:59:07.085Z,101626.13
2019-03-21T04:01:34.699Z,101618.23
2019-03-21T04:04:02.305Z,101607.28
2019-03-21T04:06:29.937Z,101607.74
2019-03-21T04:08:57.568Z,101599.86
2019-03-21T04:11:25.175Z,101597.23
2019-03-21T04:13:52.863Z,101598.53
2019-03-21T04:16:20.492Z,101602.91
2019-03-21T04:18:48.092Z,101610.36
2019-03-21T04:21:15.783Z,101608.18
2019-03-21T04:23:43.408Z,101606.42
2019-03-21T04:26:14.651Z,101608.61
2019-03-21T04:28:42.346Z,101601.16
2019-03-21T04:31:09.954Z,101594.59
2019-03-21T04:33:37.569Z,101590.66
2019-03-21T04:36:05.162Z,101595.48
2019-03-21T04:38:32.757Z,101594.60
2019-03-21T04:41:00.357Z,101585.83
2019-03-21T04:43:27.966Z,101578.81
2019-03-21T04:46:03.263Z,101581.45
2019-03-21T04:48:25.106Z,101575.74
2019-03-21T04:50:52.703Z,101570.50
2019-03-21T04:53:20.326Z,101578.81
2019-03-21T04:55:47.924Z,101573.55
2019-03-21T04:58:15.549Z,101577.48
2019-03-21T05:00:43.211Z,101584.92
2019-03-21T05:03:10.888Z,101578.34
2019-03-21T05:05:38.577Z,101578.77
2019-03-21T05:08:06.207Z,101575.71
2019-03-21T05:10:33.812Z,101566.52
2019-03-21T05:13:01.407Z,101562.15
2019-03-21T05:15:34.435Z,101555.13
2019-03-21T05:18:13.851Z,101555.13
2019-03-21T05:20:41.481Z,101555.13
2019-03-21T05:23:09.092Z,101550.77
2019-03-21T05:25:36.688Z,101548.58
2019-03-21T05:28:04.296Z,101553.81
2019-03-21T05:30:52.754Z,101551.66
2019-03-21T05:33:20.373Z,101553.39
2019-03-21T05:35:47.977Z,101547.27
2019-03-21T05:38:15.642Z,101553.84
2019-03-21T05:40:43.271Z,101552.97
2019-03-21T05:43:14.260Z,101548.59
2019-03-21T05:45:41.855Z,101560.88
2019-03-21T05:48:09.465Z,101556.48
2019-03-21T05:50:37.093Z,101549.95
2019-03-21T05:53:04.710Z,101549.94
2019-03-21T05:55:32.299Z,101546.00
2019-03-21T05:57:59.911Z,101545.13
2019-03-21T06:00:34.916Z,101550.81
2019-03-21T06:03:03.268Z,101543.39
2019-03-21T06:05:30.876Z,101548.19
2019-03-21T06:08:10.987Z,101539.44
2019-03-21T06:10:38.588Z,101550.81
2019-03-21T06:13:06.188Z,101544.27
2019-03-21T06:15:34.763Z,101534.16
2019-03-21T06:18:30.175Z,101537.25
2019-03-21T06:21:04.095Z,101535.03
2019-03-21T06:24:00.564Z,101538.55
2019-03-21T06:26:58.409Z,101531.98
2019-03-21T06:29:26.012Z,101528.89
2019-03-21T06:31:53.616Z,101527.16
2019-03-21T06:34:21.231Z,101530.66
2019-03-21T06:36:48.844Z,101524.96
2019-03-21T06:39:16.455Z,101521.87
2019-03-21T06:41:44.067Z,101519.25
2019-03-21T06:44:11.697Z,101510.47
2019-03-21T06:46:48.738Z,101500.81
2019-03-21T06:49:08.808Z,101495.97
2019-03-21T06:51:36.413Z,101484.12
2019-03-21T06:54:04.016Z,101487.61
2019-03-21T06:56:31.655Z,101482.73
2019-03-21T06:58:59.256Z,101469.58
2019-03-21T07:01:26.860Z,101461.66
2019-03-21T07:03:54.477Z,101453.28
2019-03-21T07:06:23.010Z,101446.25
2019-03-21T07:08:50.632Z,101444.91
2019-03-21T07:11:18.257Z,101444.88
2019-03-21T07:13:45.949Z,101438.25
2019-03-21T07:16:13.588Z,101444.38
2019-03-21T07:18:41.199Z,101439.95
2019-03-21T07:21:08.844Z,101427.22
2019-03-21T07:23:36.461Z,101424.13
2019-03-21T07:26:06.597Z,101419.69
2019-03-21T07:28:33.679Z,101412.25
2019-03-21T07:31:01.790Z,101410.02
2019-03-21T07:33:29.408Z,101409.56
2019-03-21T07:35:57.008Z,101403.35
2019-03-21T07:38:24.679Z,101405.49
2019-03-21T07:40:53.083Z,101406.73
2019-03-21T07:43:22.291Z,101396.98
2019-03-21T07:45:50.239Z,101385.98
2019-03-21T07:48:17.838Z,101380.68
2019-03-21T07:50:45.438Z,101381.04
2019-03-21T07:53:13.052Z,101381.46
2019-03-21T07:55:40.648Z,101375.69
2019-03-21T07:58:08.270Z,101375.17
2019-03-21T08:00:35.905Z,101366.34
2019-03-21T08:03:03.522Z,101359.27
2019-03-21T08:05:39.748Z,101367.11
2019-03-21T08:08:00.728Z,101363.09
2019-03-21T08:10:28.330Z,101355.53
2019-03-21T08:12:56.144Z,101352.86
2019-03-21T08:15:23.763Z,101351.05
2019-03-21T08:17:51.377Z,101349.70
2019-03-21T08:20:18.987Z,101343.00
2019-03-21T08:22:46.621Z,101343.79
2019-03-21T08:25:14.283Z,101349.90
2019-03-21T08:27:41.901Z,101339.72
2019-03-21T08:30:25.114Z,101335.72
2019-03-21T08:32:52.720Z,101338.69
2019-03-21T08:35:20.337Z,101338.16
2019-03-21T08:37:48.027Z,101317.83
2019-03-21T08:40:15.643Z,101317.75
2019-03-21T08:42:43.267Z,101304.91
2019-03-21T08:45:10.877Z,101295.63
2019-03-21T08:47:38.515Z,101302.59
2019-03-21T08:50:06.283Z,101294.54
2019-03-21T08:52:33.919Z,101298.86
2019-03-21T08:55:01.531Z,101289.10
2019-03-21T08:57:29.189Z,101277.13
2019-03-21T08:59:56.836Z,101279.22
2019-03-21T09:02:24.468Z,101274.70
2019-03-21T09:04:52.096Z,101274.59
2019-03-21T09:07:19.732Z,101286.34
2019-03-21T09:09:47.461Z,101283.19
2019-03-21T09:12:15.191Z,101285.77
2019-03-21T09:14:45.098Z,101283.90
2019-03-21T09:17:12.711Z,101279.47
2019-03-21T09:19:40.325Z,101272.36
2019-03-21T09:22:07.934Z,101269.25
2019-03-21T09:24:35.539Z,101271.84
2019-03-21T09:27:03.160Z,101266.95
2019-03-21T09:29:30.784Z,101259.38
2019-03-21T09:31:58.399Z,101266.83
2019-03-21T09:34:26.012Z,101261.95
2019-03-21T09:36:53.632Z,101263.67
2019-03-21T09:39:21.275Z,101266.27
2019-03-21T09:41:48.929Z,101266.70
2019-03-21T09:44:23.086Z,101266.66
2019-03-21T09:46:51.325Z,101251.59
2019-03-21T09:49:18.963Z,101252.45
2019-03-21T09:51:46.624Z,101254.59
2019-03-21T09:54:14.240Z,101261.60
2019-03-21T09:56:41.855Z,101264.64
2019-03-21T09:59:09.470Z,101266.31
2019-03-21T10:01:37.079Z,101254.40
2019-03-21T10:04:04.705Z,101253.03
2019-03-21T10:06:32.344Z,101250.32
2019-03-21T10:09:00.031Z,101257.75
2019-03-21T10:11:27.645Z,101251.06
2019-03-21T10:13:55.269Z,101247.09
2019-03-21T10:16:22.879Z,101248.77
2019-03-21T10:18:50.493Z,101247.78
2019-03-21T10:21:18.112Z,101241.09
2019-03-21T10:23:45.720Z,101242.30
2019-03-21T10:26:13.331Z,101246.22
2019-03-21T10:28:40.950Z,101251.44
2019-03-21T10:31:08.659Z,101249.14
2019-03-21T10:33:36.271Z,101247.75
2019-03-21T10:36:03.923Z,101248.13
2019-03-21T10:38:31.507Z,101241.86
2019-03-21T10:40:59.111Z,101247.95
2019-03-21T10:43:26.754Z,101247.02
2019-03-21T10:45:54.359Z,101239.92
2019-03-21T10:48:23.537Z,101235.88
2019-03-21T10:50:51.303Z,101236.75
2019-03-21T10:53:18.909Z,101237.95
2019-03-21T10:55:46.498Z,101239.15
2019-03-21T10:58:14.125Z,101242.17
2019-03-21T11:00:41.737Z,101243.39
2019-03-21T11:03:09.339Z,101235.81
2019-03-21T11:05:36.975Z,101231.33
2019-03-21T11:08:05.096Z,101241.39
2019-03-21T11:10:32.696Z,101233.30
2019-03-21T11:13:00.314Z,101237.19
2019-03-21T11:15:28.021Z,101245.45
2019-03-21T11:17:55.663Z,101246.52
2019-03-21T11:20:31.043Z,101249.00
2019-03-21T11:22:58.663Z,101242.23
2019-03-21T11:25:26.370Z,101244.22
2019-03-21T11:27:53.965Z,101234.78
2019-03-21T11:30:29.301Z,101231.59
2019-03-21T11:33:00.325Z,101239.08
2019-03-21T11:35:27.922Z,101231.05
2019-03-21T11:37:55.549Z,101233.13
2019-03-21T11:40:23.150Z,101239.68
2019-03-21T11:42:50.779Z,101245.39
2019-03-21T11:45:18.373Z,101244.55
2019-03-21T11:47:46.029Z,101235.81
2019-03-21T11:50:13.625Z,101240.22
2019-03-21T11:52:41.410Z,101235.41
2019-03-21T11:55:09.374Z,101231.89
2019-03-21T11:57:36.948Z,101232.38
2019-03-21T12:00:05.774Z,101228.39
2019-03-21T12:02:33.371Z,101228.48
2019-03-21T12:05:01.042Z,101225.83
2019-03-21T12:07:28.634Z,101224.02
2019-03-21T12:09:56.236Z,101224.82
2019-03-21T12:12:23.926Z,101229.70
2019-03-21T12:14:51.546Z,101232.34
2019-03-21T12:17:19.682Z,101234.48
2019-03-21T12:19:47.290Z,101232.38
2019-03-21T12:22:29.149Z,101239.00
2019-03-21T12:24:46.966Z,101226.27
2019-03-21T12:27:14.565Z,101239.59
2019-03-21T12:29:42.192Z,101242.66
2019-03-21T12:32:11.044Z,101249.60
2019-03-21T12:34:38.636Z,101249.14
2019-03-21T12:37:06.243Z,101248.41
2019-03-21T12:39:33.857Z,101244.46
2019-03-21T12:42:01.456Z,101248.98
2019-03-21T12:44:29.076Z,101248.19
2019-03-21T12:46:56.684Z,101248.62
2019-03-21T12:49:24.299Z,101252.77
2019-03-21T12:51:51.942Z,101263.38
2019-03-21T12:54:19.546Z,101246.34
2019-03-21T12:56:47.149Z,101260.23
2019-03-21T12:59:14.786Z,101268.25
2019-03-21T13:01:42.379Z,101266.11
2019-03-21T13:04:10.000Z,101263.48
2019-03-21T13:06:37.597Z,101263.61
2019-03-21T13:09:06.627Z,101256.60
2019-03-21T13:11:34.217Z,101261.03
2019-03-21T13:14:01.920Z,101266.41
2019-03-21T13:16:29.519Z,101266.45
2019-03-21T13:18:57.194Z,101275.73
2019-03-21T13:21:25.899Z,101271.83
2019-03-21T13:23:55.960Z,101279.00
2019-03-21T13:26:23.592Z,101280.39
2019-03-21T13:28:51.195Z,101286.20
2019-03-21T13:31:18.829Z,101277.00
2019-03-21T13:33:46.458Z,101269.97
2019-03-21T13:36:14.144Z,101271.78
2019-03-21T13:38:41.759Z,101271.37
2019-03-21T13:41:09.366Z,101275.36
2019-03-21T13:43:37.021Z,101261.73
2019-03-21T13:46:04.666Z,101254.24
2019-03-21T13:48:32.271Z,101245.84
2019-03-21T13:50:59.878Z,101250.25
2019-03-21T13:53:27.494Z,101256.36
2019-03-21T13:55:55.110Z,101255.95
2019-03-21T13:58:22.726Z,101265.63
2019-03-21T14:00:50.331Z,101260.77
2019-03-21T14:03:25.142Z,101258.06
2019-03-21T14:05:47.455Z,101259.78
2019-03-21T14:08:15.088Z,101257.09
2019-03-21T14:10:42.684Z,101259.20
2019-03-21T14:13:10.290Z,101255.16
2019-03-21T14:15:37.926Z,101251.58
2019-03-21T14:18:05.531Z,101244.83
2019-03-21T14:20:33.132Z,101251.36
2019-03-21T14:23:00.723Z,101249.50
2019-03-21T14:25:28.425Z,101247.56
2019-03-21T14:27:56.025Z,101247.11
2019-03-21T14:30:23.629Z,101251.03
2019-03-21T14:32:51.241Z,101250.48
2019-03-21T14:35:18.829Z,101245.63
2019-03-21T14:37:46.445Z,101245.25
2019-03-21T14:40:14.506Z,101237.76
2019-03-21T14:42:42.447Z,101249.17
2019-03-21T14:45:10.860Z,101252.69
2019-03-21T14:47:38.474Z,101255.31
2019-03-21T14:50:06.995Z,101260.15
2019-03-21T14:52:34.687Z,101270.80
2019-03-21T14:55:02.295Z,101273.02
2019-03-21T14:57:29.906Z,101272.55
2019-03-21T14:59:57.543Z,101270.83
2019-03-21T15:02:25.146Z,101279.64
2019-03-21T15:04:52.775Z,101286.70
2019-03-21T15:07:20.385Z,101291.93
2019-03-21T15:09:47.980Z,101294.58
2019-03-21T15:12:15.615Z,101285.30
2019-03-21T15:14:43.216Z,101294.52
2019-03-21T15:17:10.817Z,101302.02
2019-03-21T15:19:39.351Z,101310.38
2019-03-21T15:22:07.132Z,101309.51
2019-03-21T15:24:34.725Z,101310.83
2019-03-21T15:27:02.363Z,101312.06
2019-03-21T15:29:30.015Z,101307.19
2019-03-21T15:31:59.737Z,101311.14
2019-03-21T15:34:27.365Z,101315.12
2019-03-21T15:36:54.962Z,101304.44
2019-03-21T15:39:22.581Z,101304.46
2019-03-21T15:41:50.201Z,101311.07
2019-03-21T15:44:17.795Z,101317.63
2019-03-21T15:46:45.391Z,101327.30
2019-03-21T15:49:12.986Z,101337.42
2019-03-21T15:51:40.579Z,101339.17
2019-03-21T15:54:08.190Z,101349.83
2019-03-21T15:56:38.968Z,101342.80
2019-03-21T15:59:06.574Z,101342.75
2019-03-21T16:01:34.183Z,101336.25
2019-03-21T16:04:01.825Z,101347.79
2019-03-21T16:06:29.424Z,101354.89
2019-03-21T16:08:57.023Z,101353.62
2019-03-21T16:11:24.632Z,101355.94
2019-03-21T16:13:52.251Z,101359.98
2019-03-21T16:16:19.937Z,101356.08
2019-03-21T16:18:47.537Z,101360.05
2019-03-21T16:21:15.136Z,101365.93
2019-03-21T16:23:42.742Z,101371.30
2019-03-21T16:26:10.338Z,101371.37
2019-03-21T16:28:37.938Z,101373.16
2019-03-21T16:31:05.544Z,101387.40
2019-03-21T16:33:33.144Z,101383.88
2019-03-21T16:36:00.752Z,101385.29
2019-03-21T16:38:28.355Z,101386.27
2019-03-21T16:40:55.965Z,101389.90
2019-03-21T16:43:23.567Z,101392.61
2019-03-21T16:45:51.176Z,101392.67
2019-03-21T16:48:18.763Z,101405.98
2019-03-21T16:50:46.359Z,101418.42
2019-03-21T16:53:13.940Z,101419.84
2019-03-21T16:55:41.526Z,101428.77
2019-03-21T16:58:09.134Z,101443.39
2019-03-21T17:00:36.727Z,101446.56
2019-03-21T17:03:04.656Z,101451.97
2019-03-21T17:05:32.262Z,101452.89
2019-03-21T17:08:10.480Z,101454.72
2019-03-21T17:10:30.595Z,101457.88
2019-03-21T17:12:58.472Z,101460.17
2019-03-21T17:15:26.078Z,101462.88
2019-03-21T17:17:53.711Z,101472.19
2019-03-21T17:20:21.321Z,101473.56
2019-03-21T17:22:48.949Z,101478.95
2019-03-21T17:25:16.540Z,101472.44
2019-03-21T17:27:44.137Z,101484.39
2019-03-21T17:30:12.000Z,101488.41
2019-03-21T17:32:40.119Z,101487.61
2019-03-21T17:35:07.823Z,101493.86
2019-03-21T17:37:35.525Z,101490.80
2019-03-21T17:40:04.804Z,101493.03
2019-03-21T17:42:32.424Z,101492.62
2019-03-21T17:45:00.095Z,101500.16
2019-03-21T17:47:27.708Z,101502.39
2019-03-21T17:49:55.325Z,101505.48
2019-03-21T17:52:23.026Z,101508.63
2019-03-21T17:54:50.727Z,101509.95
2019-03-21T17:57:18.403Z,101504.67
2019-03-21T17:59:46.022Z,101511.27
2019-03-21T18:02:13.872Z,101516.56
2019-03-21T18:04:41.492Z,101512.65
2019-03-21T18:07:09.169Z,101516.66
2019-03-21T18:09:36.928Z,101516.70
2019-03-21T18:12:04.581Z,101517.17
2019-03-21T18:14:32.197Z,101511.52
2019-03-21T18:16:59.851Z,101510.23
2019-03-21T18:19:27.490Z,101519.12
2019-03-21T18:21:55.116Z,101523.58
2019-03-21T18:24:22.836Z,101510.86
2019-03-21T18:26:50.526Z,101512.27
2019-03-21T18:29:18.163Z,101512.77
2019-03-21T18:31:45.815Z,101521.67
2019-03-21T18:34:13.517Z,101526.17
2019-03-21T18:36:41.176Z,101536.78
2019-03-21T18:39:10.837Z,101556.59
2019-03-21T18:41:38.520Z,101562.78
2019-03-21T18:44:08.671Z,101575.09
2019-03-21T18:46:36.371Z,101588.75
2019-03-21T18:49:04.050Z,101598.88
2019-03-21T18:51:31.658Z,101616.50
2019-03-21T18:53:59.310Z,101623.14
2019-03-21T18:56:26.990Z,101627.17
2019-03-21T18:58:57.668Z,101628.45
2019-03-21T19:01:25.370Z,101638.95
2019-03-21T19:03:53.040Z,101649.46
2019-03-21T19:06:20.819Z,101664.37
2019-03-21T19:08:48.454Z,101684.03
2019-03-21T19:11:16.183Z,101699.27
2019-03-21T19:13:47.046Z,101718.40
2019-03-21T19:16:14.729Z,101731.23
2019-03-21T19:18:42.342Z,101751.11
2019-03-21T19:21:10.103Z,101760.88
2019-03-21T19:23:37.743Z,101770.15
2019-03-21T19:26:05.378Z,101778.13
2019-03-21T19:28:32.995Z,101783.05
2019-03-21T19:31:00.646Z,101787.92
2019-03-21T19:33:28.301Z,101800.73
2019-03-21T19:35:55.933Z,101806.97
2019-03-21T19:38:23.993Z,101807.02
2019-03-21T19:40:51.875Z,101810.13
2019-03-21T19:43:19.455Z,101819.83
2019-03-21T19:45:49.699Z,101825.56
2019-03-21T19:48:17.382Z,101844.07
2019-03-21T19:50:45.048Z,101874.03
2019-03-21T19:53:12.685Z,101891.63
2019-03-21T19:55:40.328Z,101893.41
2019-03-21T19:58:08.142Z,101901.34
2019-03-21T20:00:35.783Z,101910.59
2019-03-21T20:03:06.180Z,101913.68
2019-03-21T20:05:34.897Z,101910.63
2019-03-21T20:08:02.628Z,101918.98
2019-03-21T20:10:30.250Z,101937.03
2019-03-21T20:12:57.882Z,101958.17
2019-03-21T20:15:25.560Z,101969.20
2019-03-21T20:17:55.306Z,101985.03
2019-03-21T20:20:22.943Z,101985.47
2019-03-21T20:22:50.540Z,101984.16
2019-03-21T20:25:18.297Z,101973.17
2019-03-21T20:27:48.721Z,101966.56
2019-03-21T20:30:19.463Z,101977.14
2019-03-21T20:32:49.613Z,101981.53
2019-03-21T20:35:20.282Z,101974.50
2019-03-21T20:37:47.927Z,101957.78
2019-03-21T20:40:16.099Z,101941.97
2019-03-21T20:42:43.722Z,101951.66
2019-03-21T20:45:13.685Z,101937.60
2019-03-21T20:47:42.071Z,101944.19
2019-03-21T20:50:09.955Z,101955.20
2019-03-21T20:52:40.562Z,101962.70
2019-03-21T20:55:08.891Z,101965.77
2019-03-21T20:57:39.479Z,101959.65
2019-03-21T21:00:10.645Z,101975.91
2019-03-21T21:02:38.291Z,101991.29
2019-03-21T21:05:06.058Z,101988.67
2019-03-21T21:07:33.667Z,102008.45
2019-03-21T21:10:01.330Z,102019.45
2019-03-21T21:12:30.449Z,102016.37
2019-03-21T21:14:58.073Z,102030.42
2019-03-21T21:17:25.871Z,102025.15
2019-03-21T21:19:56.271Z,102022.53
2019-03-21T21:22:23.871Z,102027.80
2019-03-21T21:24:51.598Z,102042.73
2019-03-21T21:27:23.399Z,102054.17
2019-03-21T21:29:51.009Z,102062.09
2019-03-21T21:32:18.690Z,102060.75
2019-03-21T21:35:11.498Z,102065.61
2019-03-21T21:37:39.807Z,102064.27
2019-03-21T21:40:10.550Z,102075.69
2019-03-21T21:42:41.263Z,102074.80
2019-03-21T21:45:09.754Z,102089.30
2019-03-21T21:47:37.454Z,102091.49
2019-03-21T21:50:07.145Z,102094.53
2019-03-21T21:52:42.008Z,102095.84
2019-03-21T21:55:07.296Z,102096.27
2019-03-21T21:57:38.247Z,102103.29
2019-03-21T22:00:06.994Z,102114.28
2019-03-21T22:02:34.651Z,102127.86
2019-03-21T22:05:02.364Z,102135.73
2019-03-21T22:07:30.025Z,102151.04
2019-03-21T22:09:57.686Z,102156.73
2019-03-21T22:12:28.143Z,102168.10
2019-03-21T22:14:58.036Z,102166.36
2019-03-21T22:17:25.652Z,102173.80
2019-03-21T22:19:53.268Z,102168.53
2019-03-21T22:22:20.956Z,102174.67
2019-03-21T22:24:51.034Z,102181.69
2019-03-21T22:27:18.726Z,102187.84
2019-03-21T22:29:46.428Z,102189.61
2019-03-21T22:32:14.122Z,102173.75
2019-03-21T22:34:41.841Z,102182.54
2019-03-21T22:37:09.483Z,102191.73
2019-03-21T22:39:37.090Z,102182.08
2019-03-21T22:42:06.634Z,102194.34
2019-03-21T22:44:34.297Z,102204.88
2019-03-21T22:47:01.890Z,102213.22
2019-03-21T22:49:29.493Z,102220.21
2019-03-21T22:51:57.096Z,102222.84
2019-03-21T22:54:24.691Z,102232.50
2019-03-21T22:56:52.343Z,102238.20
2019-03-21T22:59:19.950Z,102251.37
2019-03-21T23:01:47.656Z,102263.22
2019-03-21T23:04:16.536Z,102268.02
2019-03-21T23:06:46.692Z,102278.08
2019-03-21T23:09:17.250Z,102278.08
2019-03-21T23:11:44.900Z,102279.81
2019-03-21T23:14:12.511Z,102285.01
2019-03-21T23:16:42.339Z,102297.70
2019-03-21T23:19:09.938Z,102317.38
2019-03-21T23:21:37.575Z,102333.54
2019-03-21T23:24:05.188Z,102336.97
2019-03-21T23:26:32.836Z,102350.06
2019-03-21T23:29:00.468Z,102359.66
2019-03-21T23:31:32.278Z,102365.72
2019-03-21T23:34:02.374Z,102365.69
2019-03-21T23:36:32.622Z,102387.56
2019-03-21T23:39:00.265Z,102381.42
2019-03-21T23:41:31.043Z,102389.75
2019-03-21T23:43:58.638Z,102382.30
2019-03-21T23:46:26.320Z,102384.09
2019-03-21T23:48:53.978Z,102396.80
2019-03-21T23:51:21.586Z,102405.63
2019-03-21T23:53:51.236Z,102416.59
2019-03-21T23:56:18.827Z,102417.50
2019-03-21T23:58:49.209Z,102428.06
